Hattiesburg, MS

2:14 PM CDT on August 27, 2016 (GMT -0500)
Woodhaven | | Change Station

Elev 374 ft 31.28 °N, 89.35 °W | Updated 5 seconds ago

Partly Cloudy
Partly Cloudy
89.4 °F
Feels Like 94 °F
N
0.0
Wind Variable Wind from WSW
Gusts 0.0 mph

Today
High -- | Low -- °F
--% Chance of Precip.
Yesterday
High -- | Low -- °F
Precip. -- in
Pressure 29.99 in
Visibility 10.0 miles
Clouds Few 6000 ft
Few 8000 ft
Heat Index 94 °F
Dew Point 69 °F
Humidity 51%
Rainfall 0.00 in
Snow Depth Not available.
6:30 AM 7:25 PM
Waning Crescent, 22% visible
METAR KHBG 271853Z AUTO 10007KT 10SM FEW060 FEW080 33/19 A3000 RMK AO2 SLP154 T03280189
Pressure 29.99 in
Visibility 10.0 miles
Clouds Few 6000 ft
Few 8000 ft
Heat Index 94 °F
Dew Point 69 °F
Humidity 51%
Rainfall 0.00 in
Snow Depth Not available.
6:30 AM 7:25 PM
Waning Crescent, 22% visible
METAR KHBG 271853Z AUTO 10007KT 10SM FEW060 FEW080 33/19 A3000 RMK AO2 SLP154 T03280189

10-Day Weather Forecast

Almanac

Astronomy

Aug. 27, 2016 Rise Set
Actual Time
Civil Twilight
Nautical Twilight
Astronomical Twilight
Moon
Length of Visible Light
Length of Day
Tomorrow will be .
, % of the Moon is Illuminated

Today's Extremes

State Highs State Lows

Community

WunderPhotos

Upload Photos

1,935,411 photos uploaded!

WunderBlog® & News

Nearby

Air Quality

  Air Quality AQ Index Pollutant
Not available.

Snow Depth

Station Depth Elevation

Earthquake Activity

City Distance Mag. Time & Date
Minimum magnitude displayed is 2.5.

Coastal Water Temperatures

Place Temperature

Stations

Nearby Weather Stations

Station Location Temp. Windchill Dew Point Humidity Wind Precip. Elev Updated Type
                   

Watches & Warnings

There are currently no watches in effect.